Time;durP1;ratioP1;P1;durP2;ratioP2;P2;SDS_P1;SDS_P2;PMS_P1;PMS_P2;Temp;Humidity;BMP_temperature;BMP_pressure;BME280_temperature;BME280_humidity;BME280_pressure;Samples;Min_cycle;Max_cycle;Signal;HPM_P1;HPM_P2
2022/03/09 01:46:06;;;;;;;13.55;6.68;;;;;;;-3.25;70.11;94898.78;5247494;23;20063;-86
2022/03/09 01:48:31;;;;;;;11.10;5.38;;;;;;;-3.35;69.49;94889.53;4938625;29;20389;-86
2022/03/09 01:50:57;;;;;;;13.00;6.05;;;;;;;-3.25;68.55;94894.44;4937956;29;20054;-86
2022/03/09 01:53:22;;;;;;;19.63;6.13;;;;;;;-3.23;69.39;94886.59;4938456;29;20039;-85
2022/03/09 01:55:48;;;;;;;13.40;6.40;;;;;;;-3.29;68.75;94885.50;4938301;29;20043;-86
2022/03/09 01:58:13;;;;;;;15.73;5.95;;;;;;;-3.46;70.84;94898.38;4920342;29;20437;-86
2022/03/09 02:00:39;;;;;;;15.77;5.70;;;;;;;-3.47;69.46;94896.78;4956710;29;20035;-86
2022/03/09 02:03:05;;;;;;;15.32;6.28;;;;;;;-3.45;70.08;94897.41;4957602;29;20035;-86
2022/03/09 02:05:31;;;;;;;13.88;6.72;;;;;;;-3.15;67.45;94899.38;4957480;29;20061;-85
2022/03/09 02:10:41;;;;;;;13.35;5.82;;;;;;;-3.22;66.86;94894.13;4957271;29;20038;-86
2022/03/09 02:13:09;;;;;;;14.00;5.70;;;;;;;-3.15;65.78;94902.72;4957374;29;20027;-86
2022/03/09 02:15:35;;;;;;;12.07;5.22;;;;;;;-3.14;64.86;94894.06;4941924;29;20035;-86
2022/03/09 02:18:00;;;;;;;12.55;5.47;;;;;;;-3.16;64.55;94902.88;4957287;29;20037;-85
2022/03/09 02:20:27;;;;;;;10.93;5.10;;;;;;;-3.16;64.98;94900.31;4941401;29;20042;-85
2022/03/09 02:22:53;;;;;;;13.23;5.40;;;;;;;-3.20;64.31;94902.44;4957524;29;20050;-85
2022/03/09 02:25:19;;;;;;;12.50;4.85;;;;;;;-3.21;63.76;94897.47;4941555;29;20031;-85
2022/03/09 02:27:45;;;;;;;11.68;5.65;;;;;;;-3.04;63.11;94898.97;4941508;29;20425;-85
2022/03/09 02:30:18;;;;;;;14.25;5.50;;;;;;;-3.08;62.54;94895.16;4942860;29;20062;-85
2022/03/09 02:32:48;;;;;;;;;;;;;;;-3.17;63.71;94898.72;4945864;29;20062;-85
2022/03/09 02:35:15;;;;;;;9.40;4.43;;;;;;;-3.08;62.89;94900.28;4945423;29;19910;-85
2022/03/09 02:37:42;;;;;;;9.15;4.40;;;;;;;-3.23;62.91;94897.63;4945241;29;20031;-85
2022/03/09 02:40:13;;;;;;;11.52;4.65;;;;;;;-3.08;62.12;94899.50;4960760;29;20035;-86
2022/03/09 02:42:39;;;;;;;13.13;5.05;;;;;;;-3.04;61.40;94901.53;4945283;29;20066;-85
2022/03/09 02:45:05;;;;;;;10.38;5.22;;;;;;;-3.16;61.81;94895.19;4945145;29;20031;-85
2022/03/09 02:47:30;;;;;;;11.23;4.95;;;;;;;-3.10;60.67;94894.53;4945262;29;20531;-85
2022/03/09 02:49:56;;;;;;;12.45;5.40;;;;;;;-3.11;60.83;94898.06;4960521;29;20114;-86
2022/03/09 02:52:22;;;;;;;12.05;5.60;;;;;;;-3.06;61.37;94903.47;4960909;29;20086;-86
2022/03/09 02:54:47;;;;;;;11.32;5.30;;;;;;;-3.02;61.79;94909.06;4960877;29;20027;-85
2022/03/09 02:57:13;;;;;;;12.52;5.13;;;;;;;-2.96;60.80;94905.81;4944973;29;20436;-85
2022/03/09 02:59:38;;;;;;;13.35;5.65;;;;;;;-2.97;60.99;94908.56;4960335;29;20340;-85
2022/03/09 03:02:04;;;;;;;11.70;5.40;;;;;;;-2.92;60.56;94908.84;4944869;29;20031;-85
2022/03/09 03:04:29;;;;;;;11.48;4.95;;;;;;;-3.00;60.66;94904.56;4960682;29;20031;-85
2022/03/09 03:06:55;;;;;;;12.10;4.97;;;;;;;-3.08;61.00;94912.34;4961814;29;20031;-85
2022/03/09 03:09:20;;;;;;;12.90;5.35;;;;;;;-3.07;60.93;94906.22;4960574;29;20173;-86
2022/03/09 03:11:45;;;;;;;17.23;5.28;;;;;;;-3.12;62.22;94907.50;4960163;29;20031;-85
2022/03/09 03:14:11;;;;;;;12.50;5.72;;;;;;;-3.29;63.38;94906.00;4960491;29;20027;-85
2022/03/09 03:16:36;;;;;;;13.57;6.03;;;;;;;-3.34;62.61;94906.50;4960483;29;20447;-85
2022/03/09 03:19:02;;;;;;;9.50;4.97;;;;;;;-3.27;60.80;94899.75;4944248;29;20039;-86
2022/03/09 03:21:28;;;;;;;9.18;3.83;;;;;;;-3.05;59.31;94909.44;4959963;29;20536;-85
2022/03/09 03:23:53;;;;;;;9.27;4.30;;;;;;;-3.03;59.80;94907.47;4960314;29;20474;-85
2022/03/09 03:26:19;;;;;;;9.48;4.40;;;;;;;-3.25;60.77;94903.91;4961405;29;20398;-85
2022/03/09 03:28:45;;;;;;;11.63;4.50;;;;;;;-3.15;59.96;94901.94;4960702;29;20431;-85
2022/03/09 03:31:11;;;;;;;13.43;4.90;;;;;;;-3.35;59.83;94902.34;4943875;29;20043;-85
2022/03/09 03:33:36;;;;;;;15.02;5.32;;;;;;;-3.39;62.11;94906.22;4944714;29;20440;-85
2022/03/09 03:36:02;;;;;;;12.90;4.22;;;;;;;-3.19;58.44;94900.66;4960115;29;20035;-86
2022/03/09 03:38:27;;;;;;;8.15;3.80;;;;;;;-3.24;59.25;94900.38;4944133;29;20035;-86
2022/03/09 03:40:53;;;;;;;8.98;3.90;;;;;;;-3.24;58.64;94905.50;4943160;29;20424;-85
2022/03/09 03:43:18;;;;;;;13.88;4.50;;;;;;;-3.38;59.96;94904.44;4943870;29;20090;-85
2022/03/09 03:45:43;;;;;;;8.55;4.00;;;;;;;-3.12;57.46;94904.16;4961576;29;20039;-85
2022/03/09 03:48:09;;;;;;;9.70;3.47;;;;;;;-2.75;54.69;94901.88;4959906;29;20416;-85
2022/03/09 03:50:35;;;;;;;7.20;3.47;;;;;;;-2.99;56.30;94901.84;4959716;29;20440;-85
2022/03/09 03:53:00;;;;;;;7.90;3.35;;;;;;;-3.17;57.80;94898.72;4944002;29;20089;-85
2022/03/09 03:55:26;;;;;;;7.95;3.80;;;;;;;-2.95;56.29;94898.94;4944376;29;20045;-86
2022/03/09 03:57:51;;;;;;;10.15;3.90;;;;;;;-2.47;52.44;94901.34;4959669;29;20106;-86
2022/03/09 04:00:17;;;;;;;12.27;4.20;;;;;;;-2.45;52.83;94901.97;4959156;29;20042;-86
2022/03/09 04:02:42;;;;;;;8.68;3.47;;;;;;;-2.64;54.17;94900.66;4943596;29;20035;-86
2022/03/09 04:05:08;;;;;;;6.57;3.15;;;;;;;-2.71;53.51;94903.13;4959605;29;20039;-86
2022/03/09 04:07:34;;;;;;;5.57;2.85;;;;;;;-2.74;52.81;94898.34;4943672;29;20035;-86
2022/03/09 04:10:00;;;;;;;5.90;3.45;;;;;;;-2.70;52.34;94900.41;4943195;29;20039;-86
2022/03/09 04:12:25;;;;;;;5.90;2.70;;;;;;;-2.51;51.15;94903.47;4940678;29;20170;-85
2022/03/09 04:14:51;;;;;;;8.18;3.80;;;;;;;-2.39;51.25;94900.50;4957280;29;20039;-85
2022/03/09 04:17:17;;;;;;;14.45;3.17;;;;;;;-2.39;50.93;94903.84;4943754;29;20043;-85
2022/03/09 04:19:42;;;;;;;10.80;3.00;;;;;;;-2.34;50.60;94903.31;4943126;29;20451;-86
2022/03/09 04:22:08;;;;;;;8.13;3.25;;;;;;;-2.57;51.88;94909.28;4959605;29;20042;-85
2022/03/09 04:24:35;;;;;;;7.90;3.45;;;;;;;-2.88;53.42;94908.34;4959279;29;20041;-86
2022/03/09 04:27:00;;;;;;;6.35;3.10;;;;;;;-2.80;51.73;94912.63;4943322;29;20042;-86
2022/03/09 04:29:26;;;;;;;5.90;3.13;;;;;;;-2.86;51.74;94910.75;4959196;29;20035;-86
2022/03/09 04:31:51;;;;;;;9.10;3.50;;;;;;;-2.91;53.01;94916.41;4958698;29;20113;-86
2022/03/09 04:34:17;;;;;;;6.85;2.83;;;;;;;-3.11;55.56;94910.88;4959059;29;20065;-86
2022/03/09 04:36:42;;;;;;;8.98;3.97;;;;;;;-3.33;54.88;94910.66;4960099;29;20035;-86
2022/03/09 04:39:08;;;;;;;7.80;3.53;;;;;;;-3.28;54.71;94905.84;4943069;29;20043;-86
2022/03/09 04:41:34;;;;;;;6.22;3.08;;;;;;;-3.03;52.87;94910.06;4959654;29;20038;-86
2022/03/09 04:43:59;;;;;;;9.43;3.20;;;;;;;-2.78;51.64;94903.00;4942828;29;20046;-85
2022/03/09 04:46:25;;;;;;;5.60;3.10;;;;;;;-3.01;53.24;94892.72;4943242;29;20039;-86
2022/03/09 04:48:50;;;;;;;6.18;2.78;;;;;;;-2.78;51.25;94902.22;4942716;29;20042;-86
2022/03/09 04:51:16;;;;;;;6.47;3.10;;;;;;;-2.91;53.22;94898.44;4958325;29;20038;-86
2022/03/09 04:53:42;;;;;;;5.63;3.33;;;;;;;-3.40;56.63;94902.06;4958307;28;20042;-86
2022/03/09 04:56:08;;;;;;;6.95;3.33;;;;;;;-3.50;55.03;94901.44;4958656;29;20035;-86
2022/03/09 04:58:33;;;;;;;6.38;3.28;;;;;;;-3.46;53.44;94895.00;4958545;29;20046;-86
2022/03/09 05:00:59;;;;;;;6.65;3.35;;;;;;;-3.26;52.50;94895.41;4957936;29;20035;-86
2022/03/09 05:03:24;;;;;;;5.50;2.85;;;;;;;-3.28;51.78;94898.16;4957127;29;20425;-86
2022/03/09 05:05:50;;;;;;;6.97;2.90;;;;;;;-3.31;52.86;94902.81;4958457;29;20034;-85
2022/03/09 05:08:15;;;;;;;5.95;3.20;;;;;;;-3.31;52.92;94906.16;4959525;29;20059;-85
2022/03/09 05:10:41;;;;;;;7.35;3.30;;;;;;;-3.41;53.78;94905.59;4941807;29;20352;-85
2022/03/09 05:13:06;;;;;;;6.32;2.83;;;;;;;-3.49;54.10;94906.41;4926686;29;20104;-86
2022/03/09 05:15:32;;;;;;;6.32;3.15;;;;;;;-3.59;55.41;94904.03;4942803;29;20035;-85
2022/03/09 05:17:57;;;;;;;10.35;2.90;;;;;;;-3.64;56.72;94908.84;4941383;28;20043;-85
2022/03/09 05:20:23;;;;;;;7.85;3.50;;;;;;;-3.81;56.07;94909.88;4961409;28;20035;-86
2022/03/09 05:22:49;;;;;;;5.93;3.03;;;;;;;-3.78;54.26;94915.47;4961349;28;20097;-86
2022/03/09 05:25:15;;;;;;;7.03;3.40;;;;;;;-3.75;55.48;94914.31;4961231;28;20037;-86
2022/03/09 05:27:41;;;;;;;5.35;2.55;;;;;;;-3.66;54.68;94910.78;4977304;28;20035;-86
2022/03/09 05:30:09;;;;;;;6.40;2.90;;;;;;;-2.88;50.40;94915.25;4961023;28;20034;-85
2022/03/09 05:32:35;;;;;;;7.20;2.92;;;;;;;-3.35;51.47;94910.03;4945484;28;20034;-86
2022/03/09 05:35:00;;;;;;;6.15;2.50;;;;;;;-3.59;51.78;94916.03;4961341;28;20031;-86
2022/03/09 05:37:28;;;;;;;5.18;2.40;;;;;;;-3.72;52.80;94924.25;4961109;28;20038;-86
2022/03/09 05:39:54;;;;;;;4.85;2.40;;;;;;;-3.43;50.23;94926.22;4960812;28;20035;-86
2022/03/09 05:42:19;;;;;;;8.50;2.72;;;;;;;-3.23;50.22;94928.38;4978303;28;20085;-86
2022/03/09 05:44:44;;;;;;;6.60;2.50;;;;;;;-3.42;50.89;94932.94;4960833;28;20446;-87
2022/03/09 05:47:10;;;;;;;7.82;2.88;;;;;;;-3.09;49.10;94931.22;4955601;29;20332;-87
2022/03/09 05:49:38;;;;;;;6.93;3.20;;;;;;;-3.04;48.88;94934.09;4942413;29;20031;-87
2022/03/09 05:52:04;;;;;;;6.93;3.10;;;;;;;-2.94;49.27;94937.25;4941998;29;20039;-86
2022/03/09 05:54:30;;;;;;;6.13;2.83;;;;;;;-2.56;48.46;94946.81;4954257;29;20042;-86
2022/03/09 05:56:55;;;;;;;9.40;3.25;;;;;;;-2.74;48.63;94947.84;4954161;29;20429;-86
2022/03/09 05:59:20;;;;;;;6.57;3.00;;;;;;;-3.05;51.05;94948.66;4958582;29;20089;-86
2022/03/09 06:01:46;;;;;;;4.85;2.63;;;;;;;-3.06;51.31;94947.06;4957111;29;20035;-86
2022/03/09 06:04:11;;;;;;;6.75;2.90;;;;;;;-2.72;49.20;94956.19;4941053;29;20038;-86
2022/03/09 06:06:37;;;;;;;8.82;3.25;;;;;;;-2.85;49.05;94951.59;4958879;29;20031;-86
2022/03/09 06:09:02;;;;;;;7.60;2.65;;;;;;;-2.48;48.22;94959.56;4941438;29;20046;-86
2022/03/09 06:11:28;;;;;;;4.63;2.80;;;;;;;-2.43;47.97;94959.06;4941527;29;20027;-86
2022/03/09 06:13:53;;;;;;;6.32;2.97;;;;;;;-1.99;46.61;94962.75;4957427;29;20131;-86
2022/03/09 06:16:19;;;;;;;5.80;3.13;;;;;;;-2.10;47.47;94961.38;4957702;29;20027;-86
2022/03/09 06:18:46;;;;;;;7.43;2.80;;;;;;;-2.14;47.45;94973.78;4941468;29;20031;-86
2022/03/09 06:21:13;;;;;;;6.95;2.83;;;;;;;-2.31;48.80;94970.53;4956889;29;20376;-87
2022/03/09 06:23:39;;;;;;;5.22;2.50;;;;;;;-2.30;50.13;94964.41;4958015;29;20031;-86
2022/03/09 06:26:05;;;;;;;6.05;2.60;;;;;;;-1.87;48.38;94971.59;4958736;29;20054;-86
2022/03/09 06:28:30;;;;;;;5.22;2.50;;;;;;;-1.82;47.57;94970.31;4941295;29;20046;-86
2022/03/09 06:30:56;;;;;;;7.05;2.60;;;;;;;-1.96;47.77;94970.09;4941073;29;20023;-86
2022/03/09 06:33:21;;;;;;;7.00;2.75;;;;;;;-1.90;48.07;94971.97;4958354;29;20031;-86
2022/03/09 06:35:47;;;;;;;7.15;3.35;;;;;;;-1.85;50.09;94976.59;4957093;29;20031;-86
2022/03/09 06:38:12;;;;;;;8.13;4.15;;;;;;;-1.70;51.51;94976.63;4958244;29;20035;-86
2022/03/09 06:40:38;;;;;;;10.75;4.32;;;;;;;-1.62;51.37;94975.75;4940875;29;20352;-86
2022/03/09 06:43:04;;;;;;;7.57;3.28;;;;;;;-1.54;52.24;94982.56;4957177;29;20357;-86
2022/03/09 06:45:29;;;;;;;5.70;2.88;;;;;;;-1.45;52.06;94995.16;4941311;29;20317;-87
2022/03/09 06:47:55;;;;;;;8.18;3.50;;;;;;;-1.39;53.08;94985.94;4957325;29;20023;-86
2022/03/09 06:50:21;;;;;;;5.63;2.97;;;;;;;-1.46;54.09;94987.63;4956639;29;20158;-86
2022/03/09 06:52:46;;;;;;;7.72;3.03;;;;;;;-1.30;54.45;94986.66;4940915;29;20039;-86
2022/03/09 06:55:12;;;;;;;9.60;3.60;;;;;;;-1.25;52.32;94986.13;4941144;29;20039;-86
2022/03/09 06:57:42;;;;;;;8.93;3.92;;;;;;;-1.33;53.37;94990.38;4957105;29;20356;-86
2022/03/09 07:00:11;;;;;;;5.90;3.30;;;;;;;-1.33;54.21;94995.50;4956761;29;20317;-86
2022/03/09 07:02:37;;;;;;;7.57;3.28;;;;;;;-1.31;54.27;94992.78;4957009;29;20031;-86
2022/03/09 07:05:03;;;;;;;6.70;3.30;;;;;;;-1.10;55.39;94999.78;4956880;29;20027;-86
2022/03/09 07:07:29;;;;;;;5.90;3.33;;;;;;;-1.40;57.14;95002.34;4957274;29;20384;-86
2022/03/09 07:09:54;;;;;;;9.43;3.63;;;;;;;-1.53;56.80;95008.09;4940685;29;20082;-86
2022/03/09 07:12:20;;;;;;;6.07;3.45;;;;;;;-1.20;55.25;95007.75;4941105;29;20027;-86
2022/03/09 07:14:46;;;;;;;9.77;3.97;;;;;;;-1.29;56.36;95009.63;4941323;29;20464;-86
2022/03/09 07:17:11;;;;;;;8.25;3.83;;;;;;;-1.32;56.25;95009.19;4943844;29;20154;-86
2022/03/09 07:19:37;;;;;;;11.25;4.18;;;;;;;-1.17;56.03;95011.75;4959974;29;20034;-86
2022/03/09 07:22:02;;;;;;;6.78;3.42;;;;;;;-1.02;55.65;95015.09;4960422;29;20027;-86
2022/03/09 07:24:28;;;;;;;9.18;4.18;;;;;;;-0.75;55.27;95015.44;4960768;29;20085;-86
2022/03/09 07:26:56;;;;;;;8.43;3.80;;;;;;;-0.52;54.36;95024.81;4961454;29;20027;-86
2022/03/09 07:29:22;;;;;;;9.40;4.03;;;;;;;-0.45;55.07;95038.53;4944413;29;20019;-86
2022/03/09 07:31:47;;;;;;;8.50;3.83;;;;;;;-0.34;55.65;95039.06;4943714;29;20039;-87
2022/03/09 07:34:13;;;;;;;11.05;4.60;;;;;;;-0.51;57.12;95041.84;4960456;29;20094;-86
2022/03/09 07:36:38;;;;;;;8.32;4.38;;;;;;;-0.20;54.03;95043.38;4961104;29;20085;-86
2022/03/09 07:39:04;;;;;;;8.63;4.10;;;;;;;-0.33;54.61;95046.59;4944196;29;20452;-86
2022/03/09 07:41:29;;;;;;;11.95;4.28;;;;;;;-0.21;54.85;95041.78;4959986;29;20027;-86
2022/03/09 07:43:55;;;;;;;9.00;3.97;;;;;;;-0.20;55.18;95047.72;4959908;29;20059;-86
2022/03/09 07:46:20;;;;;;;8.30;4.05;;;;;;;-0.04;51.64;95036.38;4944232;29;20027;-86
2022/03/09 07:48:46;;;;;;;9.02;4.05;;;;;;;0.22;52.59;95040.19;4944028;29;20030;-86
2022/03/09 07:51:11;;;;;;;8.00;4.00;;;;;;;0.26;52.84;95037.06;4943341;29;20065;-87
2022/03/09 07:53:42;;;;;;;10.75;4.35;;;;;;;0.32;51.84;95045.81;4943917;29;20027;-86
2022/03/09 07:56:11;;;;;;;6.57;3.80;;;;;;;0.46;51.16;95044.13;4959776;29;20035;-86
2022/03/09 07:58:37;;;;;;;6.97;3.63;;;;;;;0.51;53.05;95043.59;4959629;29;20086;-86
2022/03/09 08:01:02;;;;;;;7.13;3.83;;;;;;;0.51;50.55;95044.41;4959495;29;20027;-86
2022/03/09 08:03:28;;;;;;;9.68;3.97;;;;;;;0.69;50.84;95041.31;4943798;29;20035;-86
2022/03/09 08:05:53;;;;;;;8.05;3.78;;;;;;;0.74;51.41;95047.72;4943655;29;20023;-86
2022/03/09 08:08:19;;;;;;;7.15;3.67;;;;;;;0.61;50.02;95043.25;4960621;29;20027;-86
2022/03/09 08:10:45;;;;;;;6.80;4.00;;;;;;;0.50;47.45;95042.81;4943341;29;20027;-86
2022/03/09 08:13:10;;;;;;;7.55;3.90;;;;;;;0.69;48.16;95043.91;4959586;29;20029;-86
2022/03/09 08:15:37;;;;;;;8.43;4.05;;;;;;;0.81;47.01;95040.81;4959569;29;20054;-86
2022/03/09 08:18:03;;;;;;;9.35;4.25;;;;;;;0.87;48.71;95037.50;4959355;29;20512;-86
2022/03/09 08:20:29;;;;;;;7.78;4.10;;;;;;;0.88;49.67;95048.59;4943308;29;20027;-86
2022/03/09 08:22:54;;;;;;;10.80;4.88;;;;;;;0.94;49.74;95042.69;4959594;29;20023;-86
2022/03/09 08:25:20;;;;;;;14.50;5.45;;;;;;;1.13;52.19;95046.34;4959512;29;20506;-86
2022/03/09 08:27:45;;;;;;;11.05;4.32;;;;;;;1.23;52.30;95051.97;4942780;29;20118;-86
2022/03/09 08:30:11;;;;;;;12.43;5.50;;;;;;;1.29;51.91;95054.75;4959887;29;20074;-86
2022/03/09 08:32:37;;;;;;;15.07;5.88;;;;;;;1.49;54.63;95055.66;4943316;29;20081;-86
2022/03/09 08:35:03;;;;;;;15.40;6.63;;;;;;;1.52;54.60;95055.25;4943247;29;20027;-86
2022/03/09 08:37:30;;;;;;;12.65;6.47;;;;;;;1.62;54.71;95049.72;4943168;29;20050;-86
2022/03/09 08:39:56;;;;;;;15.77;7.25;;;;;;;1.77;54.07;95038.44;4958618;29;20039;-86
2022/03/09 08:42:21;;;;;;;14.88;6.95;;;;;;;2.03;55.43;95044.66;4958954;29;20352;-86
2022/03/09 08:44:46;;;;;;;17.60;6.95;;;;;;;1.90;54.64;95035.91;4959305;29;20031;-86
2022/03/09 08:47:12;;;;;;;13.10;7.00;;;;;;;1.87;54.64;95035.50;4958901;29;20078;-86
2022/03/09 08:49:39;;;;;;;13.27;6.40;;;;;;;1.93;54.94;95035.50;4958477;29;20034;-86
2022/03/09 08:52:10;;;;;;;16.02;7.00;;;;;;;2.01;54.43;95031.97;4942815;29;20031;-86
2022/03/09 08:54:36;;;;;;;15.75;6.93;;;;;;;2.22;53.43;95037.94;4959053;29;20039;-85
2022/03/09 08:57:02;;;;;;;14.85;7.07;;;;;;;2.10;53.30;95025.59;4943159;29;20436;-86
2022/03/09 08:59:28;;;;;;;16.98;5.93;;;;;;;1.97;53.18;95023.78;4958491;29;20126;-86
2022/03/09 09:01:53;;;;;;;15.98;7.25;;;;;;;2.28;56.70;95019.03;4959219;29;20106;-86
2022/03/09 09:04:19;;;;;;;16.20;6.90;;;;;;;2.36;54.56;95024.03;4942645;29;20039;-86
2022/03/09 09:06:44;;;;;;;12.98;6.25;;;;;;;2.38;53.57;95024.59;4942935;29;20035;-86
2022/03/09 09:09:10;;;;;;;11.75;6.10;;;;;;;2.56;52.00;95028.38;4958392;29;20031;-86
2022/03/09 09:11:37;;;;;;;11.63;5.90;;;;;;;2.53;52.41;95029.59;4957979;29;20042;-86
2022/03/09 09:14:03;;;;;;;14.38;6.85;;;;;;;2.74;52.32;95024.41;4942534;29;20043;-86
2022/03/09 09:16:28;;;;;;;14.93;6.63;;;;;;;2.71;52.47;95020.41;4942559;29;20031;-86
2022/03/09 09:18:54;;;;;;;15.85;6.38;;;;;;;2.96;52.06;95027.56;4958219;29;20061;-85
2022/03/09 09:21:19;;;;;;;13.07;6.25;;;;;;;2.95;53.32;95018.97;4958959;29;20388;-85
2022/03/09 09:23:45;;;;;;;13.00;6.55;;;;;;;3.22;52.70;95021.50;4959344;29;20451;-86
2022/03/09 09:26:14;;;;;;;11.40;6.53;;;;;;;3.42;54.00;95030.19;4959213;29;20086;-86
2022/03/09 09:28:39;;;;;;;13.90;6.60;;;;;;;3.51;52.20;95029.75;4959248;29;20321;-85
2022/03/09 09:31:05;;;;;;;13.48;6.70;;;;;;;3.50;51.80;95032.53;4958802;29;20086;-86
2022/03/09 09:33:30;;;;;;;11.75;6.47;;;;;;;3.60;51.38;95029.53;4957960;29;20062;-86
2022/03/09 09:35:56;;;;;;;14.18;6.57;;;;;;;3.60;50.71;95025.13;4959408;29;20467;-86
2022/03/09 09:38:21;;;;;;;21.17;6.85;;;;;;;3.69;50.53;95012.72;4959261;28;20448;-85
2022/03/09 09:40:47;;;;;;;15.43;6.43;;;;;;;3.67;48.89;95017.31;4958551;29;20031;-85
2022/03/09 09:43:14;;;;;;;10.00;4.82;;;;;;;3.76;41.81;95021.28;4959060;29;20067;-85
2022/03/09 09:45:40;;;;;;;12.75;6.07;;;;;;;3.93;45.90;95010.41;4957939;29;20039;-86
2022/03/09 09:48:07;;;;;;;11.30;5.55;;;;;;;4.21;44.06;95011.81;4958906;29;20027;-85
2022/03/09 09:50:33;;;;;;;9.88;5.50;;;;;;;4.10;43.55;95002.94;4941493;29;20408;-86
2022/03/09 09:53:03;;;;;;;11.73;5.50;;;;;;;4.05;42.72;95003.56;4958856;29;20031;-86
2022/03/09 09:55:28;;;;;;;9.40;4.75;;;;;;;4.25;40.07;95002.59;4959089;29;20079;-85
2022/03/09 09:57:55;;;;;;;8.95;4.28;;;;;;;4.31;39.08;95001.78;4941530;29;20096;-86
2022/03/09 10:00:20;;;;;;;9.02;4.32;;;;;;;4.40;38.38;94999.72;4957134;29;20035;-85
2022/03/09 10:02:46;;;;;;;12.65;5.25;;;;;;;4.20;36.80;94999.84;4958714;29;20031;-86
2022/03/09 10:05:14;;;;;;;10.73;5.03;;;;;;;4.38;38.47;94999.13;4957725;29;20027;-86
2022/03/09 10:08:05;;;;;;;7.75;3.78;;;;;;;4.67;39.46;95005.44;4957465;29;20041;-86
2022/03/09 10:10:31;;;;;;;9.38;4.15;;;;;;;4.77;38.53;95002.34;4957216;29;20420;-86
2022/03/09 10:13:15;;;;;;;8.07;4.10;;;;;;;4.81;39.01;95005.31;4957468;29;20038;-86
2022/03/09 10:15:42;;;;;;;10.32;4.70;;;;;;;4.65;37.93;94999.69;4941554;29;20447;-85
2022/03/09 10:18:18;;;;;;;9.85;5.30;;;;;;;5.23;41.48;95000.28;4957360;29;20035;-85
2022/03/09 10:20:45;;;;;;;11.25;5.40;;;;;;;5.19;37.96;94998.34;4958134;29;20037;-85
2022/03/09 10:23:11;;;;;;;9.45;4.65;;;;;;;5.05;37.15;95001.09;4957637;29;20090;-86
2022/03/09 10:25:38;;;;;;;8.35;5.00;;;;;;;5.21;40.58;94999.72;4941570;29;20034;-85
2022/03/09 10:28:09;;;;;;;9.98;5.25;;;;;;;5.24;41.13;94998.50;4957238;29;20404;-86
2022/03/09 10:30:36;;;;;;;9.02;4.80;;;;;;;5.27;38.25;95000.66;4940988;29;20027;-85
2022/03/09 10:33:04;;;;;;;7.95;4.32;;;;;;;5.13;35.87;95004.41;4941420;29;20348;-86
2022/03/09 10:35:29;;;;;;;12.73;5.18;;;;;;;5.07;36.46;94995.69;4957207;29;20027;-86
2022/03/09 10:37:56;;;;;;;11.18;5.60;;;;;;;5.22;40.79;94998.72;4957321;29;20062;-86
2022/03/09 10:40:22;;;;;;;9.95;5.25;;;;;;;5.43;41.24;94998.47;4957846;29;20038;-86
2022/03/09 10:42:48;;;;;;;11.82;5.28;;;;;;;5.59;36.99;95000.47;4958241;29;20438;-86
2022/03/09 10:45:17;;;;;;;10.95;5.03;;;;;;;5.83;41.99;94997.16;4957013;29;20031;-86
2022/03/09 10:47:47;;;;;;;10.27;5.10;;;;;;;5.79;38.68;94995.00;4957180;29;20034;-86
2022/03/09 10:50:22;;;;;;;8.45;4.32;;;;;;;5.57;34.77;94996.50;4956873;28;20114;-86
2022/03/09 10:52:49;;;;;;;9.43;4.38;;;;;;;5.54;39.63;94986.53;4944883;29;20039;-86
2022/03/09 10:55:28;;;;;;;8.70;5.00;;;;;;;5.71;35.85;94979.72;4961977;29;20031;-86
2022/03/09 10:58:10;;;;;;;8.63;4.90;;;;;;;5.91;36.20;94982.03;4961915;29;20042;-86
2022/03/09 11:00:45;;;;;;;8.60;4.72;;;;;;;5.74;37.24;94976.69;4960379;29;20031;-86
2022/03/09 11:03:24;;;;;;;9.27;4.50;;;;;;;5.90;37.35;94971.88;4961017;29;20037;-85
2022/03/09 11:05:55;;;;;;;10.77;4.70;;;;;;;6.39;37.59;94966.56;4944627;29;20038;-86
2022/03/09 11:08:23;;;;;;;11.05;5.40;;;;;;;6.31;36.21;94972.88;4944801;29;20094;-86
2022/03/09 11:10:49;;;;;;;11.93;5.45;;;;;;;6.34;39.53;94956.00;4960241;29;20027;-86
2022/03/09 11:13:16;;;;;;;10.27;4.90;;;;;;;6.37;37.34;94976.38;4960581;29;20023;-86
2022/03/09 11:15:43;;;;;;;7.88;4.72;;;;;;;6.30;37.68;94968.66;4944526;29;20023;-85
2022/03/09 11:18:12;;;;;;;10.73;5.93;;;;;;;6.22;35.99;94961.22;4944547;29;20035;-86
2022/03/09 11:20:38;;;;;;;10.07;5.22;;;;;;;6.15;36.76;94950.09;4960061;29;20034;-86
2022/03/09 11:23:04;;;;;;;8.90;5.10;;;;;;;6.07;36.45;94954.63;4944551;29;20027;-86
2022/03/09 11:25:30;;;;;;;10.73;5.78;;;;;;;6.26;36.56;94949.31;4960293;29;20061;-86
2022/03/09 11:27:56;;;;;;;9.48;5.30;;;;;;;6.45;39.23;94954.41;4944519;29;20460;-85
2022/03/09 11:30:29;;;;;;;12.48;5.32;;;;;;;6.53;38.79;94950.69;4944341;29;20133;-85
2022/03/09 11:32:58;;;;;;;13.43;5.20;;;;;;;6.69;39.09;94939.59;4961625;29;20058;-86
2022/03/09 11:35:34;;;;;;;10.70;4.85;;;;;;;6.67;37.25;94940.84;4960092;29;20428;-88
2022/03/09 11:37:59;;;;;;;11.40;5.72;;;;;;;6.89;37.30;94930.63;4959893;29;20027;-86
2022/03/09 11:40:25;;;;;;;10.20;5.68;;;;;;;6.70;36.38;94935.19;4960741;29;20472;-85
2022/03/09 11:42:50;;;;;;;12.32;5.80;;;;;;;6.93;39.54;94921.31;4959902;29;20463;-86
2022/03/09 11:45:29;;;;;;;12.52;5.20;;;;;;;6.92;35.06;94933.56;4959910;29;20038;-86
2022/03/09 11:48:01;;;;;;;12.63;6.20;;;;;;;6.75;34.68;94927.50;4960055;29;20515;-86
2022/03/09 11:50:29;;;;;;;12.05;5.35;;;;;;;6.75;34.51;94925.66;4959507;29;20031;-86
2022/03/09 11:52:58;;;;;;;11.15;5.75;;;;;;;6.81;34.90;94918.75;4960380;29;20118;-86
2022/03/09 11:55:24;;;;;;;10.43;5.55;;;;;;;7.34;37.55;94918.72;4960070;29;20034;-86
2022/03/09 11:57:52;;;;;;;10.48;5.68;;;;;;;7.53;37.29;94923.75;4944124;29;20436;-86
2022/03/09 12:00:21;;;;;;;10.38;5.88;;;;;;;7.36;34.14;94920.06;4943606;29;20433;-87
2022/03/09 12:02:51;;;;;;;11.65;5.53;;;;;;;7.34;35.69;94916.13;4958508;28;20344;-86
2022/03/09 12:05:31;;;;;;;11.75;6.30;;;;;;;7.63;39.13;94908.28;4944118;29;20055;-85
2022/03/09 12:08:04;;;;;;;10.70;5.45;;;;;;;7.64;38.02;94905.41;4960677;29;20463;-86
2022/03/09 12:10:52;;;;;;;11.63;5.97;;;;;;;8.03;36.65;94903.97;4943300;29;20027;-85
2022/03/09 12:13:39;;;;;;;9.88;5.78;;;;;;;8.13;36.45;94908.53;4943886;29;20031;-86
2022/03/09 12:16:05;;;;;;;12.05;5.78;;;;;;;8.54;35.81;94903.94;4960509;29;20063;-86
2022/03/09 12:18:33;;;;;;;8.48;5.10;;;;;;;8.56;36.72;94912.31;4960443;29;20467;-86
2022/03/09 12:20:58;;;;;;;10.60;5.80;;;;;;;8.45;31.76;94900.13;4958929;29;20121;-86
2022/03/09 12:23:24;;;;;;;11.60;5.20;;;;;;;8.18;33.69;94898.97;4959343;29;20023;-86
2022/03/09 12:25:50;;;;;;;9.05;5.40;;;;;;;8.14;34.94;94897.06;4943487;29;20023;-86
2022/03/09 12:28:28;;;;;;;11.35;5.35;;;;;;;8.04;35.14;94892.50;4943361;29;20019;-86
2022/03/09 12:30:54;;;;;;;8.88;5.07;;;;;;;8.19;32.81;94891.94;4959868;29;20073;-86
2022/03/09 12:33:28;;;;;;;9.73;5.65;;;;;;;8.21;33.60;94885.44;4943663;29;20031;-86
2022/03/09 12:36:10;;;;;;;9.75;5.07;;;;;;;8.28;34.38;94884.50;4959126;29;20321;-86
2022/03/09 12:38:36;;;;;;;10.82;5.85;;;;;;;8.69;33.27;94882.47;4943198;29;20102;-86
2022/03/09 12:41:02;;;;;;;13.05;6.15;;;;;;;8.40;31.66;94882.59;4942776;29;20027;-86
2022/03/09 12:43:48;;;;;;;13.13;6.47;;;;;;;8.59;32.95;94882.31;4943397;29;20475;-86
2022/03/09 12:46:14;;;;;;;11.82;6.38;;;;;;;8.79;33.81;94873.16;4943274;29;20038;-86
2022/03/09 12:48:40;;;;;;;12.25;6.50;;;;;;;8.72;32.82;94884.59;4958837;29;20352;-86
2022/03/09 12:51:05;;;;;;;11.63;6.20;;;;;;;8.82;33.56;94880.50;4942547;29;20066;-86
2022/03/09 12:53:31;;;;;;;12.45;6.43;;;;;;;9.07;36.34;94885.25;4934282;29;20110;-86
2022/03/09 12:55:56;;;;;;;15.82;6.68;;;;;;;9.00;33.12;94882.84;4923683;29;20407;-86
2022/03/09 12:58:24;;;;;;;13.32;7.20;;;;;;;9.19;34.71;94878.06;4923925;29;20036;-86
2022/03/09 13:01:04;;;;;;;12.65;7.10;;;;;;;9.40;37.73;94867.81;4942677;28;20030;-86
2022/03/09 13:03:29;;;;;;;16.65;7.15;;;;;;;9.41;36.17;94864.16;4961746;28;20065;-86
2022/03/09 13:05:55;;;;;;;14.35;6.93;;;;;;;9.22;33.69;94868.94;4961902;28;20058;-86
2022/03/09 13:08:21;;;;;;;15.80;6.75;;;;;;;8.92;32.37;94870.19;4970518;28;20023;-86
2022/03/09 13:10:51;;;;;;;13.18;6.82;;;;;;;8.68;32.36;94877.47;4942170;28;20352;-87
2022/03/09 13:13:17;;;;;;;13.27;6.15;;;;;;;9.21;36.97;94859.50;4946605;28;20031;-87
2022/03/09 13:15:48;;;;;;;14.00;7.57;;;;;;;9.22;33.57;94861.09;4978135;28;20029;-87
2022/03/09 13:18:31;;;;;;;16.63;7.38;;;;;;;9.01;32.91;94870.53;4976825;28;20081;-87
2022/03/09 13:20:57;;;;;;;14.60;7.88;;;;;;;8.79;33.42;94860.09;4959270;29;20027;-88